Pacific Seagull — 3FVM5 — position and weather

sailwx.info

Track history (hours):
 
Tides and Currents Weather Stations Pressure Air Temp Water Temp Dewpoint Dewpoint Depression Visibility Wind Speed Wind Dir Waves Ship Positions

Pacific Seagull

Last reported at 2018-May-17 05:15 UTC. Time now 2018-May-20 11:58 UTC.
Position S 23°57' W 046°19'.

Length 199 m; draft 6.4 m.

Type: Cargo ship. MMSI: 370485000.

Date/timePositionNaut miles runAvg speedWind from/ knotsBaromVisibWave heightAir tempDewpointWater temp
2018-May-17 05:15S 23°57' W 046°19'3 8.0
2018-May-17 04:55S 23°59' W 046°17'3 8.2
2018-May-17 04:31S 24°01' W 046°20'3 5.8
2018-May-17 04:01S 24°04' W 046°22'4 8.6
2018-May-17 03:31S 24°08' W 046°21'5 9.9
2018-May-17 03:00S 24°11' W 046°17'0 0.4
2018-May-17 02:28S 24°11' W 046°17'0 0.0
2018-May-17 01:58S 24°11' W 046°17'0 0.0
2018-May-17 01:28S 24°11' W 046°17'0 0.0
2018-May-17 00:58S 24°11' W 046°17'0 0.0
2018-May-17 00:28S 24°11' W 046°17'0 0.0
2018-May-16 23:52S 24°11' W 046°17'0 0.0
2018-May-16 23:22S 24°11' W 046°17'0 0.0
2018-May-16 22:52S 24°11' W 046°17'0 0.0
2018-May-16 22:16S 24°11' W 046°17'0 0.0
2018-May-16 21:58S 24°11' W 046°17'0 0.0
2018-May-16 21:28S 24°11' W 046°17'0 0.0
2018-May-16 20:55S 24°11' W 046°17'0 0.0
2018-May-16 20:22S 24°11' W 046°17'0 0.1
2018-May-16 19:58S 24°11' W 046°17'0 0.0
2018-May-16 19:28S 24°11' W 046°17'0 0.0
2018-May-16 18:58S 24°11' W 046°17'0 0.0
2018-May-16 18:28S 24°11' W 046°17'0 0.0
2018-May-16 17:58S 24°11' W 046°17'0 0.0
2018-May-16 17:22S 24°11' W 046°17'0 0.0
2018-May-16 16:58S 24°11' W 046°17'0 0.1
2018-May-16 16:28S 24°11' W 046°17'0 0.0
2018-May-16 15:52S 24°11' W 046°17'0 0.1
2018-May-16 15:22S 24°11' W 046°17'0 0.0
2018-May-16 14:58S 24°11' W 046°17'0 0.0
2018-May-16 14:28S 24°11' W 046°17'0 0.0
2018-May-16 13:58S 24°11' W 046°17'0 0.0
2018-May-16 13:28S 24°11' W 046°17'0 0.0
2018-May-16 12:58S 24°11' W 046°17'0 0.0
2018-May-16 12:04S 24°11' W 046°17'0 0.1
2018-May-16 11:52S 24°11' W 046°17'0 0.1
2018-May-16 11:25S 24°11' W 046°17'0 0.1
2018-May-16 10:58S 24°11' W 046°17'0 0.1
2018-May-16 10:28S 24°11' W 046°17'0 0.1
2018-May-16 09:55S 24°11' W 046°17'0 0.1
2018-May-16 09:28S 24°11' W 046°17'0 0.1
2018-May-16 08:58S 24°11' W 046°17'0 0.2
2018-May-16 08:28S 24°11' W 046°17'0 0.1
2018-May-16 07:58S 24°11' W 046°17'0 0.0
2018-May-16 07:19S 24°11' W 046°17'0 0.0
2018-May-16 06:58S 24°11' W 046°17'0 0.1
2018-May-16 06:28S 24°11' W 046°17'0 0.0
2018-May-16 05:58S 24°11' W 046°17'0 0.0
2018-May-16 05:28S 24°11' W 046°17'0 0.0
2018-May-16 04:58S 24°11' W 046°17'0 0.0
2018-May-16 04:22S 24°11' W 046°17'0 0.0
2018-May-16 03:58S 24°11' W 046°17'0 0.0
2018-May-16 03:28S 24°11' W 046°17'0 0.0
2018-May-16 02:58S 24°11' W 046°17'0 0.0
2018-May-16 02:28S 24°11' W 046°17'0 0.0
2018-May-16 01:58S 24°11' W 046°17'0 0.0
2018-May-16 01:22S 24°11' W 046°17'0 0.0
2018-May-16 00:58S 24°11' W 046°17'0 0.0
2018-May-16 00:28S 24°11' W 046°17'0 0.0
2018-May-15 23:58S 24°11' W 046°17'0 0.0
2018-May-15 23:28S 24°11' W 046°17'0 0.0
2018-May-15 22:58S 24°11' W 046°17'0 0.0
2018-May-15 22:28S 24°11' W 046°17'0 0.0
2018-May-15 21:58S 24°11' W 046°17'0 0.0
2018-May-15 21:22S 24°11' W 046°17'0 0.0
2018-May-15 20:46S 24°11' W 046°17'0 0.0
2018-May-15 20:28S 24°11' W 046°17'0 0.0
2018-May-15 19:58S 24°11' W 046°17'0 0.0
2018-May-15 19:28S 24°11' W 046°17'0 0.0
2018-May-15 18:52S 24°11' W 046°17'0 0.0
2018-May-15 18:28S 24°11' W 046°17'0 0.0
2018-May-15 17:52S 24°11' W 046°17'0 0.0
2018-May-15 17:25S 24°11' W 046°17'0 0.0
2018-May-15 16:58S 24°11' W 046°17'0 0.0
2018-May-15 16:22S 24°11' W 046°17'0 0.0
2018-May-15 15:58S 24°11' W 046°17'0 0.0
2018-May-15 15:28S 24°11' W 046°17'0 0.0
2018-May-15 14:58S 24°11' W 046°17'0 0.0
2018-May-15 14:19S 24°11' W 046°17'0 0.0
2018-May-15 13:58S 24°11' W 046°17'0 0.0
2018-May-15 13:22S 24°11' W 046°17'0 0.0
2018-May-15 12:55S 24°11' W 046°17'0 0.0
2018-May-15 12:28S 24°11' W 046°17'0 0.0
2018-May-15 11:34S 24°11' W 046°17'0 0.0
2018-May-15 11:22S 24°11' W 046°17'0 0.0
2018-May-15 10:46S 24°11' W 046°17'0 0.0
2018-May-15 10:28S 24°11' W 046°17'0 0.0
2018-May-15 09:10S 24°11' W 046°17'0 0.0
2018-May-15 08:40S 24°11' W 046°17'0 0.0
2018-May-15 08:28S 24°11' W 046°17'0 0.0
2018-May-15 07:58S 24°11' W 046°17'0 0.0
2018-May-15 07:28S 24°11' W 046°17'0 0.0
2018-May-15 06:58S 24°11' W 046°17'0 0.0
2018-May-15 06:28S 24°11' W 046°17'0 0.0
2018-May-15 05:58S 24°11' W 046°17'0 0.0
2018-May-15 05:28S 24°11' W 046°17'0 0.0
2018-May-15 04:58S 24°11' W 046°17'0 0.0
2018-May-15 04:28S 24°11' W 046°17'0 0.0
2018-May-15 03:40S 24°11' W 046°17'0 0.2
2018-May-15 03:22S 24°11' W 046°17'0 1.1
2018-May-15 03:00S 24°11' W 046°17'2 3.3
2018-May-15 02:30S 24°11' W 046°19'3 6.0
2018-May-15 02:00S 24°12' W 046°22'2 5.0
2018-May-15 01:30S 24°14' W 046°24'510.7
2018-May-15 01:00S 24°20' W 046°24'510.5
2018-May-15 00:30S 24°25' W 046°24'1 2.5
2018-May-14 23:59S 24°26' W 046°24'0 0.2
2018-May-14 23:29S 24°26' W 046°24'0 0.0
2018-May-14 22:59S 24°26' W 046°24'0 0.0
2018-May-14 22:29S 24°26' W 046°24'0 0.0
2018-May-14 21:59S 24°26' W 046°24'0 0.0
2018-May-14 21:23S 24°26' W 046°24'0 0.0
2018-May-14 20:59S 24°26' W 046°24'0 0.0
2018-May-14 20:29S 24°26' W 046°24'0 0.0
2018-May-14 19:53S 24°26' W 046°24'0 0.0
2018-May-14 19:26S 24°26' W 046°24'0 0.0
2018-May-14 18:59S 24°26' W 046°24'0 0.0
2018-May-14 18:29S 24°26' W 046°24'0 0.0
2018-May-14 17:59S 24°26' W 046°24'0 0.0
2018-May-14 17:29S 24°26' W 046°24'0 0.0
2018-May-14 16:47S 24°26' W 046°24'0 0.0
2018-May-14 16:29S 24°26' W 046°24'0 0.0
2018-May-14 15:59S 24°26' W 046°24'0 0.0
2018-May-14 15:14S 24°26' W 046°24'0 0.0
2018-May-14 14:59S 24°26' W 046°24'0 0.0
2018-May-14 14:29S 24°26' W 046°24'0 0.0
2018-May-14 13:41S 24°26' W 046°24'0 0.1
2018-May-14 13:29S 24°26' W 046°24'0 0.0
2018-May-14 12:50S 24°26' W 046°24'0 0.0
2018-May-14 12:23S 24°26' W 046°24'0 0.0
2018-May-14 11:53S 24°26' W 046°24'0 0.0
2018-May-14 11:23S 24°26' W 046°24'0 0.1
2018-May-14 10:50S 24°26' W 046°24'0 0.0
2018-May-14 10:11S 24°26' W 046°24'0 0.0
2018-May-14 09:59S 24°26' W 046°24'0 0.0
2018-May-14 09:29S 24°26' W 046°24'0 0.0
2018-May-14 08:53S 24°26' W 046°24'0 0.0
2018-May-14 08:23S 24°26' W 046°24'0 0.0
2018-May-14 07:44S 24°26' W 046°24'0 0.0
2018-May-14 07:11S 24°26' W 046°24'0 0.1
2018-May-14 06:59S 24°26' W 046°24'0 0.0
2018-May-14 06:29S 24°26' W 046°24'0 0.0
2018-May-14 05:59S 24°26' W 046°24'0 0.0
2018-May-14 05:29S 24°26' W 046°24'0 0.0
2018-May-14 04:59S 24°26' W 046°24'0 0.0
2018-May-14 04:29S 24°26' W 046°24'0 0.0
2018-May-14 03:59S 24°26' W 046°24'0 0.0
2018-May-14 03:29S 24°26' W 046°24'0 0.0
2018-May-14 02:47S 24°26' W 046°24'0 0.0
2018-May-14 02:23S 24°26' W 046°24'0 0.1
2018-May-14 01:59S 24°26' W 046°24'0 0.7
2018-May-14 01:30S 24°26' W 046°24'2 4.3
2018-May-14 01:00S 24°29' W 046°25'611.4
2018-May-14 00:29S 24°34' W 046°28'714.5
2018-May-14 00:00S 24°40' W 046°32'  
Track history (hours):
 
Tides and Currents Weather Stations Pressure Air Temp Water Temp Dewpoint Dewpoint Depression Visibility Wind Speed Wind Dir Waves Ship Positions

Pacific Seagull

Last reported at 2018-May-17 05:15 UTC. Time now 2018-May-20 11:58 UTC.
Position S 23°57' W 046°19'.

Length 199 m; draft 6.4 m.

Type: Cargo ship. MMSI: 370485000.

Date/timePositionNaut miles runAvg speedWind from/ knotsBaromVisibWave heightAir tempDewpointWater temp
2018-May-17 05:15S 23°57' W 046°19'3 8.0
2018-May-17 04:55S 23°59' W 046°17'3 8.2
2018-May-17 04:31S 24°01' W 046°20'3 5.8
2018-May-17 04:01S 24°04' W 046°22'4 8.6
2018-May-17 03:31S 24°08' W 046°21'5 9.9
2018-May-17 03:00S 24°11' W 046°17'0 0.4
2018-May-17 02:28S 24°11' W 046°17'0 0.0
2018-May-17 01:58S 24°11' W 046°17'0 0.0
2018-May-17 01:28S 24°11' W 046°17'0 0.0
2018-May-17 00:58S 24°11' W 046°17'0 0.0
2018-May-17 00:28S 24°11' W 046°17'0 0.0
2018-May-16 23:52S 24°11' W 046°17'0 0.0
2018-May-16 23:22S 24°11' W 046°17'0 0.0
2018-May-16 22:52S 24°11' W 046°17'0 0.0
2018-May-16 22:16S 24°11' W 046°17'0 0.0
2018-May-16 21:58S 24°11' W 046°17'0 0.0
2018-May-16 21:28S 24°11' W 046°17'0 0.0
2018-May-16 20:55S 24°11' W 046°17'0 0.0
2018-May-16 20:22S 24°11' W 046°17'0 0.1
2018-May-16 19:58S 24°11' W 046°17'0 0.0
2018-May-16 19:28S 24°11' W 046°17'0 0.0
2018-May-16 18:58S 24°11' W 046°17'0 0.0
2018-May-16 18:28S 24°11' W 046°17'0 0.0
2018-May-16 17:58S 24°11' W 046°17'0 0.0
2018-May-16 17:22S 24°11' W 046°17'0 0.0
2018-May-16 16:58S 24°11' W 046°17'0 0.1
2018-May-16 16:28S 24°11' W 046°17'0 0.0
2018-May-16 15:52S 24°11' W 046°17'0 0.1
2018-May-16 15:22S 24°11' W 046°17'0 0.0
2018-May-16 14:58S 24°11' W 046°17'0 0.0
2018-May-16 14:28S 24°11' W 046°17'0 0.0
2018-May-16 13:58S 24°11' W 046°17'0 0.0
2018-May-16 13:28S 24°11' W 046°17'0 0.0
2018-May-16 12:58S 24°11' W 046°17'0 0.0
2018-May-16 12:04S 24°11' W 046°17'0 0.1
2018-May-16 11:52S 24°11' W 046°17'0 0.1
2018-May-16 11:25S 24°11' W 046°17'0 0.1
2018-May-16 10:58S 24°11' W 046°17'0 0.1
2018-May-16 10:28S 24°11' W 046°17'0 0.1
2018-May-16 09:55S 24°11' W 046°17'0 0.1
2018-May-16 09:28S 24°11' W 046°17'0 0.1
2018-May-16 08:58S 24°11' W 046°17'0 0.2
2018-May-16 08:28S 24°11' W 046°17'0 0.1
2018-May-16 07:58S 24°11' W 046°17'0 0.0
2018-May-16 07:19S 24°11' W 046°17'0 0.0
2018-May-16 06:58S 24°11' W 046°17'0 0.1
2018-May-16 06:28S 24°11' W 046°17'0 0.0
2018-May-16 05:58S 24°11' W 046°17'0 0.0
2018-May-16 05:28S 24°11' W 046°17'0 0.0
2018-May-16 04:58S 24°11' W 046°17'0 0.0
2018-May-16 04:22S 24°11' W 046°17'0 0.0
2018-May-16 03:58S 24°11' W 046°17'0 0.0
2018-May-16 03:28S 24°11' W 046°17'0 0.0
2018-May-16 02:58S 24°11' W 046°17'0 0.0
2018-May-16 02:28S 24°11' W 046°17'0 0.0
2018-May-16 01:58S 24°11' W 046°17'0 0.0
2018-May-16 01:22S 24°11' W 046°17'0 0.0
2018-May-16 00:58S 24°11' W 046°17'0 0.0
2018-May-16 00:28S 24°11' W 046°17'0 0.0
2018-May-15 23:58S 24°11' W 046°17'0 0.0
2018-May-15 23:28S 24°11' W 046°17'0 0.0
2018-May-15 22:58S 24°11' W 046°17'0 0.0
2018-May-15 22:28S 24°11' W 046°17'0 0.0
2018-May-15 21:58S 24°11' W 046°17'0 0.0
2018-May-15 21:22S 24°11' W 046°17'0 0.0
2018-May-15 20:46S 24°11' W 046°17'0 0.0
2018-May-15 20:28S 24°11' W 046°17'0 0.0
2018-May-15 19:58S 24°11' W 046°17'0 0.0
2018-May-15 19:28S 24°11' W 046°17'0 0.0
2018-May-15 18:52S 24°11' W 046°17'0 0.0
2018-May-15 18:28S 24°11' W 046°17'0 0.0
2018-May-15 17:52S 24°11' W 046°17'0 0.0
2018-May-15 17:25S 24°11' W 046°17'0 0.0
2018-May-15 16:58S 24°11' W 046°17'0 0.0
2018-May-15 16:22S 24°11' W 046°17'0 0.0
2018-May-15 15:58S 24°11' W 046°17'0 0.0
2018-May-15 15:28S 24°11' W 046°17'0 0.0
2018-May-15 14:58S 24°11' W 046°17'0 0.0
2018-May-15 14:19S 24°11' W 046°17'0 0.0
2018-May-15 13:58S 24°11' W 046°17'0 0.0
2018-May-15 13:22S 24°11' W 046°17'0 0.0
2018-May-15 12:55S 24°11' W 046°17'0 0.0
2018-May-15 12:28S 24°11' W 046°17'0 0.0
2018-May-15 11:34S 24°11' W 046°17'0 0.0
2018-May-15 11:22S 24°11' W 046°17'0 0.0
2018-May-15 10:46S 24°11' W 046°17'0 0.0
2018-May-15 10:28S 24°11' W 046°17'0 0.0
2018-May-15 09:10S 24°11' W 046°17'0 0.0
2018-May-15 08:40S 24°11' W 046°17'0 0.0
2018-May-15 08:28S 24°11' W 046°17'0 0.0
2018-May-15 07:58S 24°11' W 046°17'0 0.0
2018-May-15 07:28S 24°11' W 046°17'0 0.0
2018-May-15 06:58S 24°11' W 046°17'0 0.0
2018-May-15 06:28S 24°11' W 046°17'0 0.0
2018-May-15 05:58S 24°11' W 046°17'0 0.0
2018-May-15 05:28S 24°11' W 046°17'0 0.0
2018-May-15 04:58S 24°11' W 046°17'0 0.0
2018-May-15 04:28S 24°11' W 046°17'0 0.0
2018-May-15 03:40S 24°11' W 046°17'0 0.2
2018-May-15 03:22S 24°11' W 046°17'0 1.1
2018-May-15 03:00S 24°11' W 046°17'2 3.3
2018-May-15 02:30S 24°11' W 046°19'3 6.0
2018-May-15 02:00S 24°12' W 046°22'2 5.0
2018-May-15 01:30S 24°14' W 046°24'510.7
2018-May-15 01:00S 24°20' W 046°24'510.5
2018-May-15 00:30S 24°25' W 046°24'1 2.5
2018-May-14 23:59S 24°26' W 046°24'0 0.2
2018-May-14 23:29S 24°26' W 046°24'0 0.0
2018-May-14 22:59S 24°26' W 046°24'0 0.0
2018-May-14 22:29S 24°26' W 046°24'0 0.0
2018-May-14 21:59S 24°26' W 046°24'0 0.0
2018-May-14 21:23S 24°26' W 046°24'0 0.0
2018-May-14 20:59S 24°26' W 046°24'0 0.0
2018-May-14 20:29S 24°26' W 046°24'0 0.0
2018-May-14 19:53S 24°26' W 046°24'0 0.0
2018-May-14 19:26S 24°26' W 046°24'0 0.0
2018-May-14 18:59S 24°26' W 046°24'0 0.0
2018-May-14 18:29S 24°26' W 046°24'0 0.0
2018-May-14 17:59S 24°26' W 046°24'0 0.0
2018-May-14 17:29S 24°26' W 046°24'0 0.0
2018-May-14 16:47S 24°26' W 046°24'0 0.0
2018-May-14 16:29S 24°26' W 046°24'0 0.0
2018-May-14 15:59S 24°26' W 046°24'0 0.0
2018-May-14 15:14S 24°26' W 046°24'0 0.0
2018-May-14 14:59S 24°26' W 046°24'0 0.0
2018-May-14 14:29S 24°26' W 046°24'0 0.0
2018-May-14 13:41S 24°26' W 046°24'0 0.1
2018-May-14 13:29S 24°26' W 046°24'0 0.0
2018-May-14 12:50S 24°26' W 046°24'0 0.0
2018-May-14 12:23S 24°26' W 046°24'0 0.0
2018-May-14 11:53S 24°26' W 046°24'0 0.0
2018-May-14 11:23S 24°26' W 046°24'0 0.1
2018-May-14 10:50S 24°26' W 046°24'0 0.0
2018-May-14 10:11S 24°26' W 046°24'0 0.0
2018-May-14 09:59S 24°26' W 046°24'0 0.0
2018-May-14 09:29S 24°26' W 046°24'0 0.0
2018-May-14 08:53S 24°26' W 046°24'0 0.0
2018-May-14 08:23S 24°26' W 046°24'0 0.0
2018-May-14 07:44S 24°26' W 046°24'0 0.0
2018-May-14 07:11S 24°26' W 046°24'0 0.1
2018-May-14 06:59S 24°26' W 046°24'0 0.0
2018-May-14 06:29S 24°26' W 046°24'0 0.0
2018-May-14 05:59S 24°26' W 046°24'0 0.0
2018-May-14 05:29S 24°26' W 046°24'0 0.0
2018-May-14 04:59S 24°26' W 046°24'0 0.0
2018-May-14 04:29S 24°26' W 046°24'0 0.0
2018-May-14 03:59S 24°26' W 046°24'0 0.0
2018-May-14 03:29S 24°26' W 046°24'0 0.0
2018-May-14 02:47S 24°26' W 046°24'0 0.0
2018-May-14 02:23S 24°26' W 046°24'0 0.1
2018-May-14 01:59S 24°26' W 046°24'0 0.7
2018-May-14 01:30S 24°26' W 046°24'2 4.3
2018-May-14 01:00S 24°29' W 046°25'611.4
2018-May-14 00:29S 24°34' W 046°28'714.5
2018-May-14 00:00S 24°40' W 046°32'  

Dump ship's entire track history